Time;durP1;ratioP1;P1;durP2;ratioP2;P2;SDS_P1;SDS_P2;PMS_P1;PMS_P2;Temp;Humidity;BMP_temperature;BMP_pressure;BME280_temperature;BME280_humidity;BME280_pressure;Samples;Min_cycle;Max_cycle;Signal;HPM_P1;HPM_P2
2021/07/09 00:01:11;;;;;;;6.20;3.83;;;15.60;1.00;;;;;;4953813;29;20037;-86
2021/07/09 00:03:37;;;;;;;5.82;3.90;;;15.80;1.00;;;;;;4955309;28;20029;-86
2021/07/09 00:06:03;;;;;;;4.38;3.97;;;16.00;1.00;;;;;;4956507;28;20466;-86
2021/07/09 00:08:29;;;;;;;4.78;4.30;;;15.70;1.00;;;;;;4956432;28;20527;-86
2021/07/09 00:10:55;;;;;;;6.75;4.53;;;15.70;1.00;;;;;;4956651;28;20055;-87
2021/07/09 00:13:20;;;;;;;7.50;4.03;;;16.00;1.00;;;;;;4955521;28;20073;-86
2021/07/09 00:15:47;;;;;;;6.10;4.00;;;15.70;1.00;;;;;;4956160;28;20043;-86
2021/07/09 00:18:12;;;;;;;6.93;3.95;;;15.70;1.00;;;;;;4956104;28;20035;-86
2021/07/09 00:20:38;;;;;;;6.90;3.72;;;15.60;1.00;;;;;;4956310;28;20031;-86
2021/07/09 00:23:04;;;;;;;8.68;3.97;;;15.50;1.00;;;;;;4956230;28;20031;-87
2021/07/09 00:25:30;;;;;;;5.75;4.15;;;15.40;1.00;;;;;;4955416;28;20043;-86
2021/07/09 00:27:55;;;;;;;8.68;4.18;;;15.40;1.00;;;;;;4957950;28;20511;-86
2021/07/09 00:30:21;;;;;;;5.82;4.10;;;15.40;1.00;;;;;;4955652;28;20058;-86
2021/07/09 00:32:47;;;;;;;5.95;4.22;;;15.80;1.00;;;;;;4956024;28;20039;-86
2021/07/09 00:35:13;;;;;;;5.68;3.65;;;15.50;1.00;;;;;;4955987;28;20035;-86
2021/07/09 00:37:38;;;;;;;5.22;3.92;;;15.40;1.00;;;;;;4955191;28;20595;-87
2021/07/09 00:40:06;;;;;;;4.38;3.90;;;15.40;1.00;;;;;;4955448;28;20035;-87
2021/07/09 00:42:32;;;;;;;8.55;3.97;;;15.40;1.00;;;;;;4956087;28;20391;-86
2021/07/09 00:44:58;;;;;;;5.93;3.85;;;15.40;1.00;;;;;;4955529;28;20023;-86
2021/07/09 00:47:24;;;;;;;5.13;3.83;;;15.40;1.00;;;;;;4955754;28;20063;-86
2021/07/09 00:49:49;;;;;;;8.60;4.25;;;15.30;1.00;;;;;;4955523;28;20074;-86
2021/07/09 00:52:16;;;;;;;6.07;4.22;;;15.50;1.00;;;;;;4955074;28;20039;-86
2021/07/09 00:54:42;;;;;;;7.65;4.68;;;15.60;1.00;;;;;;4955686;28;20103;-86
2021/07/09 00:57:08;;;;;;;5.57;4.10;;;15.50;1.00;;;;;;4955619;28;20106;-87
2021/07/09 00:59:35;;;;;;;10.00;4.30;;;15.20;1.00;;;;;;4955192;28;20034;-86
2021/07/09 01:02:01;;;;;;;8.32;4.32;;;15.20;1.00;;;;;;4955491;28;20027;-86
2021/07/09 01:04:27;;;;;;;7.78;4.10;;;15.10;1.00;;;;;;4955877;28;20034;-87
2021/07/09 01:06:53;;;;;;;7.72;4.22;;;15.10;1.00;;;;;;4955291;28;20126;-86
2021/07/09 01:09:19;;;;;;;7.30;4.50;;;15.10;1.00;;;;;;4955256;28;20036;-86
2021/07/09 01:11:48;;;;;;;7.25;4.25;;;15.10;1.00;;;;;;4954777;28;20591;-87
2021/07/09 01:14:14;;;;;;;8.25;4.60;;;15.10;1.00;;;;;;4954676;28;20098;-87
2021/07/09 01:16:39;;;;;;;9.73;4.22;;;15.60;1.00;;;;;;4954931;28;20059;-87
2021/07/09 01:19:07;;;;;;;5.03;4.47;;;15.10;1.00;;;;;;4954324;28;20066;-86
2021/07/09 01:21:33;;;;;;;6.68;4.32;;;15.10;1.00;;;;;;4955290;28;20443;-86
2021/07/09 01:24:04;;;;;;;4.60;4.07;;;15.10;1.00;;;;;;4954674;28;20058;-86
2021/07/09 01:26:30;;;;;;;6.47;4.30;;;15.10;1.00;;;;;;4954938;28;20503;-86
2021/07/09 01:28:56;;;;;;;6.15;4.30;;;15.10;1.00;;;;;;4954967;28;20093;-86
2021/07/09 01:31:22;;;;;;;7.43;4.10;;;15.20;1.00;;;;;;4954178;28;20031;-86
2021/07/09 01:33:47;;;;;;;6.15;4.13;;;15.40;1.00;;;;;;4954046;28;20035;-86
2021/07/09 01:36:13;;;;;;;10.20;4.30;;;15.00;1.00;;;;;;4954913;28;20496;-86
2021/07/09 01:38:39;;;;;;;6.68;4.50;;;15.00;1.00;;;;;;4955528;28;20108;-86
2021/07/09 01:41:05;;;;;;;6.93;4.20;;;15.00;1.00;;;;;;4954669;28;20106;-86
2021/07/09 01:43:31;;;;;;;7.22;4.00;;;14.90;1.00;;;;;;4953666;28;20038;-86
2021/07/09 01:45:58;;;;;;;8.27;4.60;;;14.80;1.00;;;;;;4955317;28;20019;-86
2021/07/09 01:48:24;;;;;;;7.90;4.00;;;14.90;1.00;;;;;;4954388;28;20034;-86
2021/07/09 01:50:51;;;;;;;6.05;4.35;;;15.00;1.00;;;;;;4954451;28;20051;-85
2021/07/09 01:53:16;;;;;;;7.90;4.30;;;15.10;1.00;;;;;;5176331;23;20064;-86
2021/07/09 01:55:42;;;;;;;6.43;4.38;;;15.20;1.00;;;;;;5010823;28;20022;-86
2021/07/09 01:58:08;;;;;;;6.55;4.10;;;15.10;1.00;;;;;;5012615;28;20034;-86
2021/07/09 02:00:34;;;;;;;8.90;4.07;;;15.20;1.00;;;;;;5010906;28;20030;-87
2021/07/09 02:03:00;;;;;;;4.97;3.63;;;15.30;1.00;;;;;;5011715;28;20026;-86
2021/07/09 02:05:26;;;;;;;7.63;4.10;;;15.30;1.00;;;;;;5188929;23;20054;-86
2021/07/09 02:07:55;;;;;;;10.68;4.25;;;15.80;1.00;;;;;;4992123;28;20034;-86
2021/07/09 02:10:23;;;;;;;5.07;4.22;;;15.70;1.00;;;;;;4992088;28;20019;-86
2021/07/09 02:12:54;;;;;;;7.50;4.45;;;15.40;1.00;;;;;;4991270;28;20117;-86
2021/07/09 02:15:23;;;;;;;6.75;4.43;;;15.10;1.00;;;;;;4991908;28;20030;-86
2021/07/09 02:17:49;;;;;;;5.85;4.40;;;15.10;1.00;;;;;;4991474;28;20027;-86
2021/07/09 02:20:17;;;;;;;8.18;4.63;;;15.10;1.00;;;;;;4991634;28;20113;-86
2021/07/09 02:22:44;;;;;;;8.75;4.78;;;15.10;1.00;;;;;;4991640;28;20518;-86
2021/07/09 02:25:10;;;;;;;5.53;4.43;;;15.00;1.00;;;;;;4991893;28;20038;-86
2021/07/09 02:27:37;;;;;;;5.07;4.57;;;15.10;1.00;;;;;;4995575;28;20050;-86
2021/07/09 02:30:07;;;;;;;9.50;5.22;;;15.00;1.00;;;;;;4995448;28;20030;-86
2021/07/09 02:32:33;;;;;;;7.05;4.50;;;14.90;1.00;;;;;;4995392;28;20121;-86
2021/07/09 02:34:59;;;;;;;6.97;4.57;;;14.90;1.00;;;;;;4995330;28;20482;-86
2021/07/09 02:37:25;;;;;;;5.63;4.60;;;14.80;1.00;;;;;;4992223;28;20085;-86
2021/07/09 02:39:50;;;;;;;7.00;4.70;;;14.80;1.00;;;;;;4995666;28;20034;-86
2021/07/09 02:42:16;;;;;;;7.53;4.88;;;14.80;1.00;;;;;;5010060;28;20065;-86
2021/07/09 02:44:42;;;;;;;9.60;4.80;;;14.90;1.00;;;;;;4995649;28;20023;-87
2021/07/09 02:47:08;;;;;;;8.88;5.03;;;14.90;1.00;;;;;;4996143;28;20026;-86
2021/07/09 02:49:33;;;;;;;10.95;5.13;;;14.90;1.00;;;;;;4995557;28;20026;-86
2021/07/09 02:52:00;;;;;;;7.22;5.28;;;14.80;1.00;;;;;;4995108;28;20486;-86
2021/07/09 02:54:25;;;;;;;11.35;5.18;;;14.80;1.00;;;;;;4995404;28;20023;-86
2021/07/09 02:56:51;;;;;;;11.68;4.50;;;14.80;1.00;;;;;;4994970;28;20109;-86
2021/07/09 02:59:16;;;;;;;9.48;4.75;;;15.10;1.00;;;;;;4995648;28;20465;-86
2021/07/09 03:01:42;;;;;;;7.32;4.65;;;14.90;1.00;;;;;;4995103;28;20030;-86
2021/07/09 03:04:12;;;;;;;10.90;4.85;;;14.80;1.00;;;;;;4995342;28;20034;-86
2021/07/09 03:06:38;;;;;;;7.82;4.93;;;14.80;1.00;;;;;;4994687;28;20557;-86
2021/07/09 03:09:08;;;;;;;8.93;4.80;;;15.20;1.00;;;;;;4994908;28;20026;-86
2021/07/09 03:11:35;;;;;;;7.50;4.60;;;14.80;1.00;;;;;;4994746;28;20081;-86
2021/07/09 03:14:02;;;;;;;9.68;5.10;;;15.20;1.00;;;;;;4995559;28;20030;-86
2021/07/09 03:16:28;;;;;;;10.57;5.30;;;14.50;1.00;;;;;;4995451;28;20054;-86
2021/07/09 03:18:53;;;;;;;11.95;5.57;;;14.50;1.00;;;;;;4994687;28;20526;-86
2021/07/09 03:21:20;;;;;;;10.82;5.43;;;14.50;1.00;;;;;;4994278;28;20490;-86
2021/07/09 03:23:45;;;;;;;6.95;4.90;;;14.40;1.00;;;;;;4995009;28;20560;-86
2021/07/09 03:26:11;;;;;;;11.15;4.93;;;14.40;1.00;;;;;;4994698;28;20034;-86
2021/07/09 03:28:37;;;;;;;9.05;4.72;;;14.40;1.00;;;;;;4994896;28;20053;-86
2021/07/09 03:31:02;;;;;;;10.60;4.78;;;14.80;1.00;;;;;;4994749;28;20057;-86
2021/07/09 03:33:28;;;;;;;11.25;4.55;;;14.40;1.00;;;;;;4994208;28;20368;-86
2021/07/09 03:35:54;;;;;;;8.48;4.97;;;14.30;1.00;;;;;;4994348;28;20454;-86
2021/07/09 03:38:20;;;;;;;6.85;4.82;;;14.60;1.00;;;;;;4994474;28;20042;-86
2021/07/09 03:40:46;;;;;;;5.95;4.57;;;14.80;1.00;;;;;;4994557;28;20079;-86
2021/07/09 03:43:11;;;;;;;5.15;4.30;;;14.90;1.00;;;;;;4993659;28;20034;-85
2021/07/09 03:45:37;;;;;;;12.15;4.90;;;14.30;1.00;;;;;;4994510;28;20426;-86
2021/07/09 03:48:04;;;;;;;8.13;4.80;;;14.40;1.00;;;;;;4993883;28;20025;-85
2021/07/09 03:50:29;;;;;;;9.73;5.15;;;14.40;1.00;;;;;;4993751;28;20022;-86
2021/07/09 03:52:55;;;;;;;8.93;4.70;;;14.40;1.00;;;;;;4994632;28;20521;-86
2021/07/09 03:55:21;;;;;;;12.15;5.00;;;14.50;1.00;;;;;;4994600;28;20018;-86
2021/07/09 03:57:47;;;;;;;5.75;4.85;;;14.60;1.00;;;;;;4994740;28;20089;-86
2021/07/09 04:00:14;;;;;;;10.73;5.53;;;14.30;1.00;;;;;;4993646;28;20102;-86
2021/07/09 04:02:40;;;;;;;8.23;5.22;;;14.30;1.00;;;;;;4994477;28;20030;-86
2021/07/09 04:05:07;;;;;;;10.77;5.10;;;14.30;1.00;;;;;;4993642;28;20422;-86
2021/07/09 04:07:32;;;;;;;9.75;5.07;;;14.30;1.00;;;;;;4993874;28;20034;-86
2021/07/09 04:09:58;;;;;;;7.07;4.85;;;14.30;1.00;;;;;;4994025;28;20044;-86
2021/07/09 04:12:24;;;;;;;8.80;4.47;;;14.20;1.00;;;;;;4994360;28;20038;-86
2021/07/09 04:14:49;;;;;;;7.18;4.78;;;14.10;1.00;;;;;;4993561;28;20533;-86
2021/07/09 04:17:15;;;;;;;8.60;4.95;;;14.20;1.00;;;;;;4993838;28;20066;-86
2021/07/09 04:19:41;;;;;;;11.50;5.32;;;14.20;1.00;;;;;;4994129;28;20029;-86
2021/07/09 04:22:07;;;;;;;8.88;5.10;;;14.20;1.00;;;;;;4994025;28;20035;-86
2021/07/09 04:24:32;;;;;;;7.53;4.78;;;14.20;1.00;;;;;;4993319;28;20019;-86
2021/07/09 04:26:58;;;;;;;10.25;4.80;;;14.30;1.00;;;;;;5008518;28;20034;-86
2021/07/09 04:29:24;;;;;;;10.88;4.90;;;14.30;1.00;;;;;;4993839;28;20018;-86
2021/07/09 04:31:49;;;;;;;8.77;5.00;;;14.30;1.00;;;;;;4993301;28;20050;-86
2021/07/09 04:34:15;;;;;;;11.98;5.00;;;14.30;1.00;;;;;;4993607;28;20037;-87
2021/07/09 04:36:42;;;;;;;8.57;4.65;;;14.40;1.00;;;;;;4993080;28;20101;-86
2021/07/09 04:39:08;;;;;;;7.22;5.40;;;14.40;1.00;;;;;;4993202;28;20026;-86
2021/07/09 04:41:33;;;;;;;9.68;5.18;;;14.50;1.00;;;;;;4993103;28;20029;-86
2021/07/09 04:43:59;;;;;;;7.13;5.57;;;14.50;1.00;;;;;;4993266;28;20026;-86
2021/07/09 04:46:25;;;;;;;10.10;5.57;;;14.40;1.00;;;;;;4993578;28;20108;-86
2021/07/09 04:48:50;;;;;;;12.00;5.63;;;14.90;1.00;;;;;;4991830;28;20109;-86
2021/07/09 04:51:16;;;;;;;12.30;5.50;;;14.40;1.00;;;;;;4993055;28;20049;-86
2021/07/09 04:53:42;;;;;;;8.10;5.40;;;14.50;1.00;;;;;;4992979;28;20494;-86
2021/07/09 04:56:07;;;;;;;8.65;5.65;;;14.60;1.00;;;;;;4992773;28;20032;-86
2021/07/09 04:58:33;;;;;;;8.60;6.40;;;14.60;1.00;;;;;;4993405;28;20030;-86
2021/07/09 05:00:59;;;;;;;9.70;5.72;;;14.60;1.00;;;;;;4993868;28;20414;-86
2021/07/09 05:03:24;;;;;;;11.15;6.07;;;14.60;1.00;;;;;;4993172;28;20014;-86
2021/07/09 05:05:50;;;;;;;8.98;5.18;;;14.70;1.00;;;;;;4992560;28;20086;-86
2021/07/09 05:08:16;;;;;;;8.75;6.38;;;15.10;1.00;;;;;;4992873;28;20026;-86
2021/07/09 05:10:41;;;;;;;8.75;6.07;;;14.70;1.00;;;;;;4992778;28;20031;-86
2021/07/09 05:13:08;;;;;;;11.35;5.80;;;14.70;1.00;;;;;;4992810;28;20035;-86
2021/07/09 05:15:34;;;;;;;12.05;6.05;;;15.20;1.00;;;;;;4992690;28;20022;-86
2021/07/09 05:18:00;;;;;;;12.77;6.15;;;14.80;1.00;;;;;;4992410;28;20029;-86
2021/07/09 05:20:26;;;;;;;8.32;6.03;;;14.80;1.00;;;;;;4992190;28;20034;-86
2021/07/09 05:22:52;;;;;;;13.32;6.20;;;14.90;1.00;;;;;;5008173;28;20019;-86
2021/07/09 05:25:17;;;;;;;12.07;6.75;;;14.90;1.00;;;;;;4992772;28;20145;-86
2021/07/09 05:27:43;;;;;;;8.02;6.10;;;14.90;1.00;;;;;;4992478;28;20376;-86
2021/07/09 05:30:11;;;;;;;13.27;6.28;;;14.90;1.00;;;;;;4991904;28;20452;-86
2021/07/09 05:32:39;;;;;;;12.15;7.45;;;15.00;1.00;;;;;;4991986;28;20422;-86
2021/07/09 05:35:06;;;;;;;9.05;6.07;;;15.10;1.00;;;;;;4992468;28;20065;-86
2021/07/09 05:37:32;;;;;;;10.75;7.10;;;15.20;1.00;;;;;;4992348;28;20026;-85
2021/07/09 05:39:58;;;;;;;10.95;6.65;;;15.30;1.00;;;;;;4992401;28;20054;-86
2021/07/09 05:42:24;;;;;;;9.32;6.80;;;15.60;1.00;;;;;;4992290;28;20064;-86
2021/07/09 05:44:49;;;;;;;9.18;7.03;;;15.40;1.00;;;;;;4991683;28;20406;-86
2021/07/09 05:47:15;;;;;;;13.27;7.25;;;15.40;1.00;;;;;;4992141;28;20058;-86
2021/07/09 05:49:41;;;;;;;10.07;7.05;;;15.60;1.00;;;;;;4991745;28;20047;-86
2021/07/09 05:52:07;;;;;;;8.35;6.68;;;15.60;1.00;;;;;;4991179;28;20561;-86
2021/07/09 05:54:33;;;;;;;12.32;7.30;;;15.70;1.00;;;;;;4991897;28;20065;-86
2021/07/09 05:56:59;;;;;;;9.65;7.35;;;16.10;1.00;;;;;;4992065;28;20027;-86
2021/07/09 05:59:25;;;;;;;10.00;7.55;;;15.80;1.00;;;;;;4992032;28;20113;-86
2021/07/09 06:01:50;;;;;;;9.65;7.45;;;15.80;1.00;;;;;;4991435;28;20045;-86
2021/07/09 06:04:17;;;;;;;10.38;7.55;;;15.90;1.00;;;;;;4991441;28;20109;-86
2021/07/09 06:06:43;;;;;;;9.85;7.20;;;16.00;1.00;;;;;;4990148;28;20049;-86
2021/07/09 06:09:09;;;;;;;13.55;8.30;;;16.00;1.00;;;;;;4992055;28;20026;-86
2021/07/09 06:11:35;;;;;;;11.65;8.88;;;16.00;1.00;;;;;;4991437;28;20053;-86
2021/07/09 06:14:01;;;;;;;10.88;7.55;;;16.10;1.00;;;;;;4991613;28;20034;-86
2021/07/09 06:16:27;;;;;;;13.10;7.68;;;16.20;1.00;;;;;;4991863;28;20026;-86
2021/07/09 06:18:53;;;;;;;11.68;7.63;;;16.20;1.00;;;;;;4991375;28;20451;-86
2021/07/09 06:21:18;;;;;;;12.32;8.13;;;16.20;1.00;;;;;;4991596;28;20026;-86
2021/07/09 06:23:44;;;;;;;10.02;7.38;;;16.30;1.00;;;;;;4992107;28;20022;-86
2021/07/09 06:26:10;;;;;;;10.45;7.97;;;16.20;1.00;;;;;;4991620;28;20027;-86
2021/07/09 06:28:36;;;;;;;14.18;8.20;;;16.20;1.00;;;;;;4991685;28;20050;-86
2021/07/09 06:31:03;;;;;;;17.40;8.60;;;16.40;1.00;;;;;;4990905;28;20027;-86
2021/07/09 06:33:28;;;;;;;12.27;8.38;;;16.50;1.00;;;;;;4991682;28;20034;-86
2021/07/09 06:35:54;;;;;;;13.45;8.38;;;16.40;1.00;;;;;;4991497;28;20034;-86
2021/07/09 06:38:20;;;;;;;13.98;8.63;;;16.50;1.00;;;;;;4991439;28;20038;-86
2021/07/09 06:40:45;;;;;;;11.95;7.85;;;16.50;1.00;;;;;;4991745;28;20030;-86
2021/07/09 06:43:12;;;;;;;11.32;7.85;;;16.60;1.00;;;;;;4992407;28;20022;-86
2021/07/09 06:45:38;;;;;;;8.23;7.45;;;16.70;1.00;;;;;;4991301;28;20465;-86
2021/07/09 06:48:05;;;;;;;9.65;7.35;;;16.70;1.00;;;;;;4991123;28;20048;-86
2021/07/09 06:50:31;;;;;;;9.80;7.40;;;16.70;1.00;;;;;;5006334;28;20109;-86
2021/07/09 06:52:56;;;;;;;9.32;7.05;;;16.80;1.00;;;;;;4991976;28;20134;-90
2021/07/09 06:55:22;;;;;;;8.23;6.68;;;16.80;1.00;;;;;;4992766;28;20022;-91
2021/07/09 06:57:48;;;;;;;8.32;6.78;;;16.90;1.00;;;;;;4992469;28;20077;-91
2021/07/09 07:00:15;;;;;;;8.30;7.10;;;16.90;1.00;;;;;;4992140;28;20450;-87
2021/07/09 07:02:41;;;;;;;10.02;6.80;;;16.80;1.00;;;;;;4990970;28;20206;-86
2021/07/09 07:05:07;;;;;;;8.20;6.53;;;16.90;1.00;;;;;;4991516;28;20168;-86
2021/07/09 07:07:33;;;;;;;9.52;6.57;;;17.20;1.00;;;;;;4990518;28;20030;-85
2021/07/09 07:09:59;;;;;;;9.90;6.72;;;17.30;1.00;;;;;;4991641;28;20073;-86
2021/07/09 07:12:28;;;;;;;9.05;6.07;;;17.50;1.00;;;;;;4992802;28;20034;-86
2021/07/09 07:14:54;;;;;;;9.15;6.25;;;17.60;1.00;;;;;;4995122;28;20030;-86
2021/07/09 07:17:20;;;;;;;8.02;6.35;;;17.60;1.00;;;;;;4994781;28;20037;-86
2021/07/09 07:19:45;;;;;;;8.10;5.90;;;17.60;1.00;;;;;;4994609;28;20487;-87
2021/07/09 07:22:11;;;;;;;7.00;6.35;;;17.60;1.00;;;;;;4995068;28;20154;-87
2021/07/09 07:24:37;;;;;;;8.35;6.38;;;17.70;1.00;;;;;;4994779;28;20069;-86
2021/07/09 07:27:03;;;;;;;9.15;6.50;;;17.60;1.00;;;;;;4994193;28;20034;-86
2021/07/09 07:29:29;;;;;;;6.68;5.97;;;17.50;1.00;;;;;;4995166;28;20487;-86
2021/07/09 07:31:55;;;;;;;10.35;5.82;;;17.60;1.00;;;;;;4994449;28;20073;-86
2021/07/09 07:34:20;;;;;;;8.75;5.97;;;17.50;1.00;;;;;;4994827;28;20026;-86
2021/07/09 07:36:47;;;;;;;8.15;5.38;;;17.50;1.00;;;;;;4994608;28;20034;-86
2021/07/09 07:39:12;;;;;;;6.75;5.68;;;17.80;1.00;;;;;;4994273;28;20022;-86
2021/07/09 07:41:38;;;;;;;7.32;5.57;;;18.00;1.00;;;;;;4994599;28;20033;-86
2021/07/09 07:44:05;;;;;;;6.97;5.68;;;17.90;1.00;;;;;;4994141;28;20031;-87
2021/07/09 07:46:30;;;;;;;6.95;5.00;;;18.20;1.00;;;;;;4994431;28;20038;-87
2021/07/09 07:48:57;;;;;;;6.93;4.95;;;18.40;1.00;;;;;;4994880;28;20037;-87
2021/07/09 07:51:23;;;;;;;5.72;5.03;;;18.50;1.00;;;;;;4994033;28;20036;-87
2021/07/09 07:53:50;;;;;;;7.82;5.13;;;18.40;1.00;;;;;;4994479;28;20038;-86
2021/07/09 07:56:17;;;;;;;5.93;4.20;;;18.40;1.00;;;;;;4993990;28;20418;-87
2021/07/09 07:58:43;;;;;;;8.82;4.80;;;18.50;1.00;;;;;;4994030;28;20406;-86
2021/07/09 08:01:10;;;;;;;5.65;4.55;;;18.70;1.00;;;;;;4994455;28;20064;-87
2021/07/09 08:03:36;;;;;;;5.53;4.70;;;18.70;1.00;;;;;;4994278;28;20462;-86
2021/07/09 08:06:03;;;;;;;5.07;4.18;;;18.90;1.00;;;;;;4993992;28;20518;-87
2021/07/09 08:08:30;;;;;;;5.78;3.95;;;19.00;1.00;;;;;;5008803;28;20541;-87
2021/07/09 08:10:56;;;;;;;6.70;4.85;;;19.00;1.00;;;;;;4993682;28;20014;-86
2021/07/09 08:13:21;;;;;;;4.90;4.35;;;18.90;1.00;;;;;;4994429;28;20073;-87
2021/07/09 08:15:47;;;;;;;5.15;4.00;;;18.90;1.00;;;;;;4994435;28;20031;-87
2021/07/09 08:18:13;;;;;;;6.43;4.50;;;19.00;1.00;;;;;;4993644;28;20087;-87
2021/07/09 08:20:42;;;;;;;6.55;4.22;;;19.20;1.00;;;;;;5008804;28;20394;-87
2021/07/09 08:23:08;;;;;;;4.45;4.05;;;19.30;1.00;;;;;;5008076;28;20042;-86
2021/07/09 08:25:35;;;;;;;5.53;4.18;;;19.20;1.00;;;;;;4993491;28;20515;-87
2021/07/09 08:28:01;;;;;;;4.10;3.70;;;19.40;1.00;;;;;;4993831;28;20030;-87
2021/07/09 08:30:26;;;;;;;4.95;4.22;;;19.60;1.00;;;;;;4993299;28;20486;-87
2021/07/09 08:32:52;;;;;;;4.13;3.75;;;19.70;1.00;;;;;;4993269;28;20042;-87
2021/07/09 08:35:18;;;;;;;4.35;3.95;;;19.80;1.00;;;;;;4993361;28;20022;-87
2021/07/09 08:37:43;;;;;;;7.07;4.28;;;19.90;1.00;;;;;;5008992;28;20081;-87
2021/07/09 08:40:10;;;;;;;6.18;3.88;;;20.20;1.00;;;;;;4993521;28;20084;-86
2021/07/09 08:42:37;;;;;;;5.47;3.72;;;20.10;1.00;;;;;;4993122;28;20038;-87
2021/07/09 08:45:05;;;;;;;5.18;3.47;;;20.00;1.00;;;;;;4993412;28;20053;-87
2021/07/09 08:47:32;;;;;;;5.78;3.40;;;20.10;1.00;;;;;;4993485;28;20463;-86
2021/07/09 08:50:00;;;;;;;3.75;3.45;;;20.20;1.00;;;;;;4993385;28;20533;-86
2021/07/09 08:52:26;;;;;;;3.92;3.53;;;20.20;1.00;;;;;;4993464;28;20042;-87
2021/07/09 08:54:52;;;;;;;4.25;3.60;;;20.20;1.00;;;;;;5007546;28;20038;-87
2021/07/09 08:57:17;;;;;;;4.57;3.60;;;20.50;1.00;;;;;;4992889;28;20035;-88
2021/07/09 08:59:43;;;;;;;6.00;4.05;;;20.70;1.00;;;;;;4994414;28;20037;-87
2021/07/09 09:02:08;;;;;;;3.40;3.05;;;21.00;1.00;;;;;;4993170;28;20022;-86
2021/07/09 09:04:36;;;;;;;4.07;3.65;;;21.00;1.00;;;;;;4993328;28;20050;-87
2021/07/09 09:07:07;;;;;;;4.60;3.30;;;20.90;1.00;;;;;;4992972;28;20077;-87
2021/07/09 09:09:35;;;;;;;5.15;3.65;;;21.10;1.00;;;;;;4992473;28;20519;-87
2021/07/09 09:12:15;;;;;;;3.63;3.10;;;21.30;1.00;;;;;;4992904;28;20036;-87
2021/07/09 09:14:46;;;;;;;3.47;3.17;;;21.40;1.00;;;;;;4992976;28;20030;-88
2021/07/09 09:17:27;;;;;;;4.78;3.30;;;21.70;99.90;;;;;;4993179;28;20046;-87
2021/07/09 09:20:18;;;;;;;4.25;3.20;;;22.00;99.90;;;;;;4992892;28;20018;-87
2021/07/09 09:22:49;;;;;;;5.32;3.63;;;21.70;99.90;;;;;;4990681;28;20062;-87
2021/07/09 09:25:32;;;;;;;3.58;3.20;;;21.80;99.90;;;;;;4991336;28;20517;-87
2021/07/09 09:28:04;;;;;;;4.82;3.42;;;22.00;99.90;;;;;;4993119;28;20030;-87
2021/07/09 09:30:31;;;;;;;4.50;2.90;;;22.20;99.90;;;;;;4992269;28;20014;-87
2021/07/09 09:33:02;;;;;;;4.15;3.10;;;22.40;99.90;;;;;;4992457;28;20484;-87
2021/07/09 09:35:31;;;;;;;3.65;3.13;;;22.50;99.90;;;;;;4992520;28;20399;-87
2021/07/09 09:37:59;;;;;;;4.20;3.35;;;23.00;99.90;;;;;;4991275;28;20487;-87
2021/07/09 09:40:26;;;;;;;4.95;3.50;;;23.10;99.90;;;;;;4993188;28;20037;-87
2021/07/09 09:42:53;;;;;;;5.72;3.25;;;23.30;99.90;;;;;;4992525;28;20034;-87
2021/07/09 09:45:26;;;;;;;5.75;3.10;;;23.50;99.90;;;;;;4992081;28;20023;-88
2021/07/09 09:47:52;;;;;;;3.85;3.03;;;23.30;99.90;;;;;;5008864;28;20126;-87
2021/07/09 09:50:21;;;;;;;3.63;2.70;;;23.20;99.90;;;;;;4992378;28;20096;-88
2021/07/09 09:52:50;;;;;;;5.15;2.97;;;23.20;99.90;;;;;;4991880;28;20046;-87
2021/07/09 09:55:20;;;;;;;3.45;2.92;;;23.50;99.90;;;;;;4993287;28;20031;-88
2021/07/09 09:57:48;;;;;;;3.30;2.33;;;23.50;99.90;;;;;;4992589;28;20084;-87
2021/07/09 10:00:16;;;;;;;3.60;2.75;;;23.70;99.90;;;;;;4992589;28;20034;-87
2021/07/09 10:02:44;;;;;;;2.70;2.33;;;23.50;99.90;;;;;;4992125;28;20026;-88
2021/07/09 10:05:10;;;;;;;3.55;2.33;;;23.50;99.90;;;;;;4992058;28;20096;-87
2021/07/09 10:07:36;;;;;;;4.10;2.30;;;23.40;99.90;;;;;;5006991;28;20030;-87
2021/07/09 10:10:04;;;;;;;3.60;2.40;;;23.20;99.90;;;;;;4992655;28;20022;-88
2021/07/09 10:12:30;;;;;;;3.13;2.15;;;23.60;99.90;;;;;;4992037;28;20045;-88
2021/07/09 10:14:56;;;;;;;2.97;2.25;;;23.80;99.90;;;;;;4991788;28;20092;-88
2021/07/09 10:17:26;;;;;;;2.28;2.08;;;23.90;99.90;;;;;;4992105;28;20045;-87
2021/07/09 10:19:53;;;;;;;3.08;2.47;;;23.90;99.90;;;;;;4991938;28;20542;-88
2021/07/09 10:22:19;;;;;;;4.35;2.40;;;24.30;99.90;;;;;;4992552;28;20509;-88
2021/07/09 10:24:46;;;;;;;3.90;2.20;;;24.70;99.90;;;;;;4992104;28;20026;-88
2021/07/09 10:27:13;;;;;;;3.42;2.30;;;24.40;99.90;;;;;;4992101;28;20030;-87
2021/07/09 10:29:46;;;;;;;3.92;2.35;;;24.30;99.90;;;;;;4991614;28;20030;-87
2021/07/09 10:32:12;;;;;;;2.92;2.22;;;23.90;99.90;;;;;;4991744;28;20113;-88
2021/07/09 10:34:47;;;;;;;2.95;2.45;;;24.10;99.90;;;;;;4991880;28;20069;-88
2021/07/09 10:37:21;;;;;;;2.67;2.17;;;24.40;99.90;;;;;;4990222;28;20030;-87
2021/07/09 10:40:00;;;;;;;3.42;2.13;;;24.60;99.90;;;;;;4991940;28;20042;-88
2021/07/09 10:42:29;;;;;;;2.72;2.13;;;24.30;99.90;;;;;;4991714;28;20041;-88
2021/07/09 10:45:24;;;;;;;2.45;2.25;;;24.10;99.90;;;;;;5007045;28;20030;-88
2021/07/09 10:48:15;;;;;;;3.30;2.10;;;24.50;99.90;;;;;;4993966;28;20533;-87
2021/07/09 10:50:47;;;;;;;2.60;2.40;;;24.80;99.90;;;;;;4995289;28;20164;-87
2021/07/09 10:53:16;;;;;;;2.65;2.20;;;24.70;99.90;;;;;;5010499;28;20053;-88
2021/07/09 10:55:58;;;;;;;3.50;2.25;;;24.90;99.90;;;;;;4996171;28;20038;-88
2021/07/09 10:58:27;;;;;;;5.38;2.60;;;24.70;99.90;;;;;;4995535;28;20530;-88
2021/07/09 11:01:14;;;;;;;3.58;2.30;;;24.80;99.90;;;;;;4995190;28;20041;-88
2021/07/09 11:03:50;;;;;;;2.33;2.13;;;24.70;99.90;;;;;;5010499;28;20077;-88
2021/07/09 11:06:32;;;;;;;2.72;2.13;;;24.90;99.90;;;;;;4995251;28;20057;-88
2021/07/09 11:09:05;;;;;;;3.97;2.28;;;25.70;99.90;;;;;;4995455;28;20037;-88
2021/07/09 11:11:33;;;;;;;2.83;2.50;;;26.00;99.90;;;;;;4994642;28;20023;-87
2021/07/09 11:14:07;;;;;;;2.50;2.13;;;26.10;99.90;;;;;;4995153;28;20037;-88
2021/07/09 11:16:48;;;;;;;2.90;2.10;;;25.70;99.90;;;;;;4992298;28;20038;-88
2021/07/09 11:19:27;;;;;;;4.72;2.22;;;26.00;99.90;;;;;;4993746;28;20027;-88
2021/07/09 11:21:55;;;;;;;2.28;2.00;;;25.80;99.90;;;;;;4994892;28;20026;-88
2021/07/09 11:24:24;;;;;;;2.85;2.22;;;25.80;99.90;;;;;;4994616;28;20022;-88
2021/07/09 11:26:53;;;;;;;5.63;1.95;;;25.60;99.90;;;;;;4995150;28;20026;-87
2021/07/09 11:29:29;;;;;;;2.78;1.95;;;25.60;99.90;;;;;;4994905;28;20026;-88
2021/07/09 11:32:02;;;;;;;2.97;1.80;;;25.90;99.90;;;;;;4994707;28;20053;-88
2021/07/09 11:34:41;;;;;;;2.10;1.90;;;26.10;99.90;;;;;;4991251;28;20442;-88
2021/07/09 11:37:20;;;;;;;2.33;1.98;;;25.90;99.90;;;;;;4993035;28;20073;-88
2021/07/09 11:39:47;;;;;;;1.80;1.70;;;25.90;99.90;;;;;;4993940;28;20495;-91
2021/07/09 11:42:17;;;;;;;5.57;1.90;;;25.90;99.90;;;;;;4994430;28;20038;-92
2021/07/09 11:44:45;;;;;;;3.95;2.20;;;26.30;99.90;;;;;;4989048;28;20081;-91
2021/07/09 11:47:13;;;;;;;3.70;1.90;;;26.20;99.90;;;;;;5007427;28;20061;-90
2021/07/09 11:49:51;;;;;;;2.15;2.03;;;26.60;99.90;;;;;;4990621;28;20072;-92
2021/07/09 11:52:26;;;;;;;1.70;1.50;;;26.40;99.90;;;;;;4993452;28;20121;-92
2021/07/09 11:54:54;;;;;;;2.50;1.70;;;26.70;99.90;;;;;;4994463;28;20022;-91
2021/07/09 11:57:22;;;;;;;1.83;1.70;;;26.60;99.90;;;;;;4994557;28;20490;-91
2021/07/09 11:59:49;;;;;;;1.75;1.65;;;26.80;99.90;;;;;;5009649;28;20037;-88
2021/07/09 12:02:22;;;;;;;2.55;1.65;;;27.10;99.90;;;;;;4993722;28;20106;-88
2021/07/09 12:05:03;;;;;;;1.92;1.70;;;27.70;99.90;;;;;;5008275;28;20574;-88
2021/07/09 12:07:34;;;;;;;1.80;1.70;;;28.70;99.90;;;;;;4990211;28;20026;-88
2021/07/09 12:10:17;;;;;;;2.20;1.63;;;30.60;99.90;;;;;;4994322;28;20084;-88
2021/07/09 12:12:46;;;;;;;4.25;1.65;;;32.00;99.90;;;;;;4993672;28;20054;-88
2021/07/09 12:15:18;;;;;;;1.50;1.40;;;34.20;99.90;;;;;;5009103;28;20026;-88
2021/07/09 12:17:51;;;;;;;1.70;1.60;;;34.00;99.90;;;;;;4993272;28;20041;-89
2021/07/09 12:20:20;;;;;;;1.50;1.40;;;35.20;99.90;;;;;;4993891;28;20082;-88
2021/07/09 12:23:17;;;;;;;1.60;1.50;;;36.50;99.90;;;;;;4994217;28;20029;-88
2021/07/09 12:25:52;;;;;;;1.80;1.40;;;37.10;99.90;;;;;;5006833;28;20117;-89
2021/07/09 12:28:22;;;;;;;2.17;1.45;;;38.50;99.90;;;;;;4992667;28;20022;-89
2021/07/09 12:30:50;;;;;;;1.63;1.52;;;37.70;99.90;;;;;;4993981;28;20125;-88
2021/07/09 12:33:20;;;;;;;1.67;1.58;;;38.50;99.90;;;;;;4993188;28;20117;-89
2021/07/09 12:35:46;;;;;;;2.72;1.55;;;38.70;99.90;;;;;;4993497;28;20034;-88
2021/07/09 12:38:13;;;;;;;3.33;1.60;;;38.30;99.90;;;;;;4993971;28;20101;-89
2021/07/09 12:40:45;;;;;;;1.58;1.48;;;38.70;99.90;;;;;;4992231;28;20399;-89
2021/07/09 12:43:21;;;;;;;1.83;1.52;;;39.00;99.90;;;;;;5009370;28;20018;-89
2021/07/09 12:46:06;;;;;;;1.92;1.63;;;36.70;99.90;;;;;;4993702;28;20034;-89
2021/07/09 12:48:44;;;;;;;1.65;1.40;;;38.50;99.90;;;;;;4993294;28;20023;-89
2021/07/09 12:51:24;;;;;;;1.60;1.50;;;37.50;99.90;;;;;;4993431;28;20022;-88
2021/07/09 12:54:12;;;;;;;1.50;1.40;;;37.10;99.90;;;;;;4993061;28;20039;-89
2021/07/09 12:56:48;;;;;;;1.70;1.50;;;38.10;99.90;;;;;;4993170;28;20038;-89